sensor_id;sensor_type;location;lat;lon;timestamp;P1;durP1;ratioP1;P2;durP2;ratioP2
14076;SDS011;7114;51.100;13.998;2023-04-06T00:01:22;11.15;;;4.15;;
14076;SDS011;7114;51.100;13.998;2023-04-06T00:03:48;9.90;;;4.22;;
14076;SDS011;7114;51.100;13.998;2023-04-06T00:06:15;10.73;;;4.57;;
14076;SDS011;7114;51.100;13.998;2023-04-06T00:08:41;11.65;;;3.78;;
14076;SDS011;7114;51.100;13.998;2023-04-06T00:11:08;12.48;;;3.97;;
14076;SDS011;7114;51.100;13.998;2023-04-06T00:13:34;10.25;;;3.85;;
14076;SDS011;7114;51.100;13.998;2023-04-06T00:16:00;11.82;;;4.07;;
14076;SDS011;7114;51.100;13.998;2023-04-06T00:18:28;11.30;;;4.10;;
14076;SDS011;7114;51.100;13.998;2023-04-06T00:20:54;12.63;;;4.22;;
14076;SDS011;7114;51.100;13.998;2023-04-06T00:23:20;11.98;;;3.95;;
14076;SDS011;7114;51.100;13.998;2023-04-06T00:25:47;9.07;;;3.75;;
14076;SDS011;7114;51.100;13.998;2023-04-06T00:28:13;9.75;;;3.47;;
14076;SDS011;7114;51.100;13.998;2023-04-06T00:30:39;11.80;;;3.60;;
14076;SDS011;7114;51.100;13.998;2023-04-06T00:33:05;10.90;;;3.97;;
14076;SDS011;7114;51.100;13.998;2023-04-06T00:35:33;10.65;;;3.55;;
14076;SDS011;7114;51.100;13.998;2023-04-06T00:38:00;11.70;;;3.55;;
14076;SDS011;7114;51.100;13.998;2023-04-06T00:40:26;11.27;;;3.65;;
14076;SDS011;7114;51.100;13.998;2023-04-06T00:42:53;9.43;;;3.30;;
14076;SDS011;7114;51.100;13.998;2023-04-06T00:45:19;10.90;;;3.60;;
14076;SDS011;7114;51.100;13.998;2023-04-06T00:47:46;9.90;;;3.45;;
14076;SDS011;7114;51.100;13.998;2023-04-06T00:50:12;10.00;;;3.30;;
14076;SDS011;7114;51.100;13.998;2023-04-06T00:52:39;10.93;;;3.38;;
14076;SDS011;7114;51.100;13.998;2023-04-06T00:55:06;11.33;;;3.33;;
14076;SDS011;7114;51.100;13.998;2023-04-06T00:57:33;9.00;;;3.35;;
14076;SDS011;7114;51.100;13.998;2023-04-06T00:59:59;9.88;;;3.22;;
14076;SDS011;7114;51.100;13.998;2023-04-06T01:02:25;10.82;;;3.60;;
14076;SDS011;7114;51.100;13.998;2023-04-06T01:04:52;11.48;;;3.35;;
14076;SDS011;7114;51.100;13.998;2023-04-06T01:07:18;10.10;;;3.20;;
14076;SDS011;7114;51.100;13.998;2023-04-06T01:09:46;12.35;;;3.65;;
14076;SDS011;7114;51.100;13.998;2023-04-06T01:12:12;9.65;;;3.53;;
14076;SDS011;7114;51.100;13.998;2023-04-06T01:14:39;11.48;;;3.70;;
14076;SDS011;7114;51.100;13.998;2023-04-06T01:17:05;11.40;;;4.18;;
14076;SDS011;7114;51.100;13.998;2023-04-06T01:19:31;11.40;;;4.20;;
14076;SDS011;7114;51.100;13.998;2023-04-06T01:21:57;10.63;;;3.80;;
14076;SDS011;7114;51.100;13.998;2023-04-06T01:24:25;11.57;;;3.85;;
14076;SDS011;7114;51.100;13.998;2023-04-06T01:26:51;11.50;;;4.05;;
14076;SDS011;7114;51.100;13.998;2023-04-06T01:29:18;11.70;;;3.90;;
14076;SDS011;7114;51.100;13.998;2023-04-06T01:31:44;11.63;;;5.23;;
14076;SDS011;7114;51.100;13.998;2023-04-06T01:34:11;9.63;;;3.58;;
14076;SDS011;7114;51.100;13.998;2023-04-06T01:36:37;10.10;;;3.97;;
14076;SDS011;7114;51.100;13.998;2023-04-06T01:39:03;11.32;;;4.25;;
14076;SDS011;7114;51.100;13.998;2023-04-06T01:41:31;12.88;;;4.20;;
14076;SDS011;7114;51.100;13.998;2023-04-06T01:43:57;11.50;;;3.80;;
14076;SDS011;7114;51.100;13.998;2023-04-06T01:46:23;13.70;;;3.80;;
14076;SDS011;7114;51.100;13.998;2023-04-06T01:48:50;13.77;;;4.45;;
14076;SDS011;7114;51.100;13.998;2023-04-06T01:51:16;10.90;;;4.20;;
14076;SDS011;7114;51.100;13.998;2023-04-06T01:53:43;10.00;;;3.53;;
14076;SDS011;7114;51.100;13.998;2023-04-06T01:56:09;11.73;;;3.93;;
14076;SDS011;7114;51.100;13.998;2023-04-06T01:58:37;12.00;;;3.80;;
14076;SDS011;7114;51.100;13.998;2023-04-06T02:01:03;12.38;;;4.00;;
14076;SDS011;7114;51.100;13.998;2023-04-06T02:03:29;9.63;;;3.65;;
14076;SDS011;7114;51.100;13.998;2023-04-06T02:05:56;9.18;;;3.42;;
14076;SDS011;7114;51.100;13.998;2023-04-06T02:08:22;10.43;;;3.60;;
14076;SDS011;7114;51.100;13.998;2023-04-06T02:10:48;9.27;;;2.90;;
14076;SDS011;7114;51.100;13.998;2023-04-06T02:13:15;10.35;;;3.30;;
14076;SDS011;7114;51.100;13.998;2023-04-06T02:15:42;10.32;;;3.22;;
14076;SDS011;7114;51.100;13.998;2023-04-06T02:18:08;10.15;;;3.15;;
14076;SDS011;7114;51.100;13.998;2023-04-06T02:20:35;8.17;;;2.70;;
14076;SDS011;7114;51.100;13.998;2023-04-06T02:23:01;9.88;;;3.05;;
14076;SDS011;7114;51.100;13.998;2023-04-06T02:25:28;10.35;;;2.90;;
14076;SDS011;7114;51.100;13.998;2023-04-06T02:27:54;9.68;;;3.03;;
14076;SDS011;7114;51.100;13.998;2023-04-06T02:30:20;8.27;;;2.90;;
14076;SDS011;7114;51.100;13.998;2023-04-06T02:32:48;10.73;;;2.93;;
14076;SDS011;7114;51.100;13.998;2023-04-06T02:35:14;8.80;;;2.70;;
14076;SDS011;7114;51.100;13.998;2023-04-06T02:37:40;8.45;;;2.92;;
14076;SDS011;7114;51.100;13.998;2023-04-06T02:40:07;10.18;;;2.90;;
14076;SDS011;7114;51.100;13.998;2023-04-06T02:42:34;8.82;;;2.50;;
14076;SDS011;7114;51.100;13.998;2023-04-06T02:45:00;8.87;;;2.80;;
14076;SDS011;7114;51.100;13.998;2023-04-06T02:47:27;9.75;;;2.58;;
14076;SDS011;7114;51.100;13.998;2023-04-06T02:49:54;9.38;;;2.97;;
14076;SDS011;7114;51.100;13.998;2023-04-06T02:52:21;8.55;;;2.75;;
14076;SDS011;7114;51.100;13.998;2023-04-06T02:54:47;8.60;;;2.75;;
14076;SDS011;7114;51.100;13.998;2023-04-06T02:57:13;8.43;;;2.50;;
14076;SDS011;7114;51.100;13.998;2023-04-06T02:59:39;8.25;;;2.63;;
14076;SDS011;7114;51.100;13.998;2023-04-06T03:02:06;10.05;;;2.78;;
14076;SDS011;7114;51.100;13.998;2023-04-06T03:04:32;10.55;;;3.25;;
14076;SDS011;7114;51.100;13.998;2023-04-06T03:06:59;10.23;;;3.22;;
14076;SDS011;7114;51.100;13.998;2023-04-06T03:09:26;9.93;;;3.40;;
14076;SDS011;7114;51.100;13.998;2023-04-06T03:11:52;11.48;;;3.20;;
14076;SDS011;7114;51.100;13.998;2023-04-06T03:14:18;12.52;;;3.17;;
14076;SDS011;7114;51.100;13.998;2023-04-06T03:16:46;9.00;;;2.95;;
14076;SDS011;7114;51.100;13.998;2023-04-06T03:19:12;9.70;;;3.25;;
14076;SDS011;7114;51.100;13.998;2023-04-06T03:21:39;9.07;;;2.70;;
14076;SDS011;7114;51.100;13.998;2023-04-06T03:24:07;8.93;;;3.00;;
14076;SDS011;7114;51.100;13.998;2023-04-06T03:26:33;9.30;;;2.80;;
14076;SDS011;7114;51.100;13.998;2023-04-06T03:29:00;8.93;;;2.78;;
14076;SDS011;7114;51.100;13.998;2023-04-06T03:31:26;8.55;;;2.75;;
14076;SDS011;7114;51.100;13.998;2023-04-06T03:33:52;8.37;;;2.80;;
14076;SDS011;7114;51.100;13.998;2023-04-06T03:36:19;8.30;;;3.13;;
14076;SDS011;7114;51.100;13.998;2023-04-06T03:38:45;8.35;;;2.88;;
14076;SDS011;7114;51.100;13.998;2023-04-06T03:41:13;10.27;;;2.75;;
14076;SDS011;7114;51.100;13.998;2023-04-06T03:43:39;11.68;;;3.28;;
14076;SDS011;7114;51.100;13.998;2023-04-06T03:46:05;8.93;;;2.80;;
14076;SDS011;7114;51.100;13.998;2023-04-06T03:48:32;8.98;;;2.83;;
14076;SDS011;7114;51.100;13.998;2023-04-06T03:50:58;12.40;;;3.20;;
14076;SDS011;7114;51.100;13.998;2023-04-06T03:53:25;9.10;;;3.25;;
14076;SDS011;7114;51.100;13.998;2023-04-06T03:55:51;9.07;;;3.40;;
14076;SDS011;7114;51.100;13.998;2023-04-06T03:58:19;9.10;;;2.90;;
14076;SDS011;7114;51.100;13.998;2023-04-06T04:00:45;9.02;;;2.92;;
14076;SDS011;7114;51.100;13.998;2023-04-06T04:03:11;11.23;;;3.47;;
14076;SDS011;7114;51.100;13.998;2023-04-06T04:05:38;9.15;;;3.33;;
14076;SDS011;7114;51.100;13.998;2023-04-06T04:08:04;9.73;;;3.28;;
14076;SDS011;7114;51.100;13.998;2023-04-06T04:10:30;9.47;;;3.30;;
14076;SDS011;7114;51.100;13.998;2023-04-06T04:12:56;11.88;;;3.30;;
14076;SDS011;7114;51.100;13.998;2023-04-06T04:15:24;12.32;;;4.07;;
14076;SDS011;7114;51.100;13.998;2023-04-06T04:17:50;11.85;;;3.35;;
14076;SDS011;7114;51.100;13.998;2023-04-06T04:20:16;10.20;;;3.30;;
14076;SDS011;7114;51.100;13.998;2023-04-06T04:22:43;10.03;;;3.37;;
14076;SDS011;7114;51.100;13.998;2023-04-06T04:25:09;9.70;;;3.13;;
14076;SDS011;7114;51.100;13.998;2023-04-06T04:27:35;10.27;;;2.95;;
14076;SDS011;7114;51.100;13.998;2023-04-06T04:30:02;11.73;;;3.25;;
14076;SDS011;7114;51.100;13.998;2023-04-06T04:32:30;10.30;;;3.30;;
14076;SDS011;7114;51.100;13.998;2023-04-06T04:34:56;10.80;;;3.43;;
14076;SDS011;7114;51.100;13.998;2023-04-06T04:37:22;10.73;;;3.58;;
14076;SDS011;7114;51.100;13.998;2023-04-06T04:39:48;10.38;;;3.42;;
14076;SDS011;7114;51.100;13.998;2023-04-06T04:42:15;9.32;;;3.05;;
14076;SDS011;7114;51.100;13.998;2023-04-06T04:44:41;10.68;;;4.10;;
14076;SDS011;7114;51.100;13.998;2023-04-06T04:47:07;10.57;;;3.60;;
14076;SDS011;7114;51.100;13.998;2023-04-06T04:49:35;10.98;;;3.95;;
14076;SDS011;7114;51.100;13.998;2023-04-06T04:52:01;10.93;;;4.00;;
14076;SDS011;7114;51.100;13.998;2023-04-06T04:54:27;10.57;;;4.07;;
14076;SDS011;7114;51.100;13.998;2023-04-06T04:56:53;11.18;;;4.00;;
14076;SDS011;7114;51.100;13.998;2023-04-06T04:59:20;10.07;;;4.10;;
14076;SDS011;7114;51.100;13.998;2023-04-06T05:01:46;10.27;;;3.50;;
14076;SDS011;7114;51.100;13.998;2023-04-06T05:04:12;11.30;;;4.00;;
14076;SDS011;7114;51.100;13.998;2023-04-06T05:06:40;12.15;;;4.30;;
14076;SDS011;7114;51.100;13.998;2023-04-06T05:09:06;13.38;;;4.22;;
14076;SDS011;7114;51.100;13.998;2023-04-06T05:11:32;12.03;;;3.70;;
14076;SDS011;7114;51.100;13.998;2023-04-06T05:13:59;10.98;;;3.92;;
14076;SDS011;7114;51.100;13.998;2023-04-06T05:16:25;13.18;;;4.15;;
14076;SDS011;7114;51.100;13.998;2023-04-06T05:18:51;10.95;;;4.10;;
14076;SDS011;7114;51.100;13.998;2023-04-06T05:21:18;13.93;;;4.40;;
14076;SDS011;7114;51.100;13.998;2023-04-06T05:23:46;11.43;;;4.33;;
14076;SDS011;7114;51.100;13.998;2023-04-06T05:26:12;12.20;;;3.95;;
14076;SDS011;7114;51.100;13.998;2023-04-06T05:28:39;11.27;;;3.97;;
14076;SDS011;7114;51.100;13.998;2023-04-06T05:31:07;10.60;;;4.13;;
14076;SDS011;7114;51.100;13.998;2023-04-06T05:33:33;12.95;;;4.10;;
14076;SDS011;7114;51.100;13.998;2023-04-06T05:36:00;11.27;;;4.10;;
14076;SDS011;7114;51.100;13.998;2023-04-06T05:38:26;11.23;;;4.00;;
14076;SDS011;7114;51.100;13.998;2023-04-06T05:40:54;12.52;;;4.10;;
14076;SDS011;7114;51.100;13.998;2023-04-06T05:43:20;13.88;;;3.90;;
14076;SDS011;7114;51.100;13.998;2023-04-06T05:45:46;13.60;;;4.03;;
14076;SDS011;7114;51.100;13.998;2023-04-06T05:48:13;11.80;;;4.50;;
14076;SDS011;7114;51.100;13.998;2023-04-06T05:50:39;13.45;;;5.20;;
14076;SDS011;7114;51.100;13.998;2023-04-06T05:53:05;12.93;;;5.05;;
14076;SDS011;7114;51.100;13.998;2023-04-06T05:55:31;13.00;;;4.75;;
14076;SDS011;7114;51.100;13.998;2023-04-06T05:57:59;13.98;;;4.93;;
14076;SDS011;7114;51.100;13.998;2023-04-06T06:00:25;13.83;;;4.63;;
14076;SDS011;7114;51.100;13.998;2023-04-06T06:02:52;12.93;;;4.80;;
14076;SDS011;7114;51.100;13.998;2023-04-06T06:05:18;15.15;;;5.28;;
14076;SDS011;7114;51.100;13.998;2023-04-06T06:07:44;12.65;;;4.57;;
14076;SDS011;7114;51.100;13.998;2023-04-06T06:10:11;12.75;;;5.28;;
14076;SDS011;7114;51.100;13.998;2023-04-06T06:12:37;11.20;;;4.60;;
14076;SDS011;7114;51.100;13.998;2023-04-06T06:15:06;12.15;;;4.60;;
14076;SDS011;7114;51.100;13.998;2023-04-06T06:17:32;12.68;;;4.47;;
14076;SDS011;7114;51.100;13.998;2023-04-06T06:19:59;10.40;;;4.38;;
14076;SDS011;7114;51.100;13.998;2023-04-06T06:22:25;12.10;;;4.30;;
14076;SDS011;7114;51.100;13.998;2023-04-06T06:24:52;12.97;;;4.47;;
14076;SDS011;7114;51.100;13.998;2023-04-06T06:27:18;10.65;;;4.32;;
14076;SDS011;7114;51.100;13.998;2023-04-06T06:29:45;11.65;;;4.28;;
14076;SDS011;7114;51.100;13.998;2023-04-06T06:32:12;9.85;;;3.70;;
14076;SDS011;7114;51.100;13.998;2023-04-06T06:34:38;11.02;;;3.72;;
14076;SDS011;7114;51.100;13.998;2023-04-06T06:37:05;9.70;;;3.50;;
14076;SDS011;7114;51.100;13.998;2023-04-06T06:39:31;10.43;;;3.65;;
14076;SDS011;7114;51.100;13.998;2023-04-06T06:41:57;8.57;;;3.15;;
14076;SDS011;7114;51.100;13.998;2023-04-06T06:44:26;9.32;;;3.17;;
14076;SDS011;7114;51.100;13.998;2023-04-06T06:46:52;9.70;;;3.35;;
14076;SDS011;7114;51.100;13.998;2023-04-06T06:49:20;9.00;;;2.90;;
14076;SDS011;7114;51.100;13.998;2023-04-06T06:51:46;9.95;;;2.88;;
14076;SDS011;7114;51.100;13.998;2023-04-06T06:54:12;9.77;;;2.95;;
14076;SDS011;7114;51.100;13.998;2023-04-06T06:56:39;8.50;;;2.80;;
14076;SDS011;7114;51.100;13.998;2023-04-06T06:59:05;7.82;;;2.50;;
14076;SDS011;7114;51.100;13.998;2023-04-06T07:01:31;8.27;;;2.83;;
14076;SDS011;7114;51.100;13.998;2023-04-06T07:03:58;9.90;;;3.10;;
14076;SDS011;7114;51.100;13.998;2023-04-06T07:06:25;10.88;;;3.60;;
14076;SDS011;7114;51.100;13.998;2023-04-06T07:08:52;10.60;;;3.15;;
14076;SDS011;7114;51.100;13.998;2023-04-06T07:11:18;9.95;;;3.20;;
14076;SDS011;7114;51.100;13.998;2023-04-06T07:13:45;9.77;;;3.03;;
14076;SDS011;7114;51.100;13.998;2023-04-06T07:16:12;10.15;;;3.22;;
14076;SDS011;7114;51.100;13.998;2023-04-06T07:18:38;9.45;;;3.50;;
14076;SDS011;7114;51.100;13.998;2023-04-06T07:21:04;9.57;;;3.22;;
14076;SDS011;7114;51.100;13.998;2023-04-06T07:23:32;10.30;;;3.72;;
14076;SDS011;7114;51.100;13.998;2023-04-06T07:25:58;7.97;;;3.30;;
14076;SDS011;7114;51.100;13.998;2023-04-06T07:28:24;8.25;;;3.20;;
14076;SDS011;7114;51.100;13.998;2023-04-06T07:30:51;9.60;;;3.70;;
14076;SDS011;7114;51.100;13.998;2023-04-06T07:33:18;9.38;;;3.88;;
14076;SDS011;7114;51.100;13.998;2023-04-06T07:35:44;9.10;;;4.10;;
14076;SDS011;7114;51.100;13.998;2023-04-06T07:38:11;10.07;;;4.37;;
14076;SDS011;7114;51.100;13.998;2023-04-06T07:40:38;8.30;;;4.07;;
14076;SDS011;7114;51.100;13.998;2023-04-06T07:43:05;8.52;;;3.53;;
14076;SDS011;7114;51.100;13.998;2023-04-06T07:45:31;9.25;;;3.67;;
14076;SDS011;7114;51.100;13.998;2023-04-06T07:47:58;8.68;;;3.78;;
14076;SDS011;7114;51.100;13.998;2023-04-06T07:50:24;10.40;;;3.40;;
14076;SDS011;7114;51.100;13.998;2023-04-06T07:52:50;8.40;;;3.03;;
14076;SDS011;7114;51.100;13.998;2023-04-06T07:55:16;8.95;;;3.20;;
14076;SDS011;7114;51.100;13.998;2023-04-06T07:57:44;7.85;;;3.28;;
14076;SDS011;7114;51.100;13.998;2023-04-06T08:00:10;9.00;;;3.65;;
14076;SDS011;7114;51.100;13.998;2023-04-06T08:02:38;7.50;;;3.27;;
14076;SDS011;7114;51.100;13.998;2023-04-06T08:05:04;7.72;;;3.42;;
14076;SDS011;7114;51.100;13.998;2023-04-06T08:07:32;7.68;;;3.38;;
14076;SDS011;7114;51.100;13.998;2023-04-06T08:09:58;7.85;;;3.03;;
14076;SDS011;7114;51.100;13.998;2023-04-06T08:12:24;8.55;;;2.47;;
14076;SDS011;7114;51.100;13.998;2023-04-06T08:14:52;6.20;;;2.30;;
14076;SDS011;7114;51.100;13.998;2023-04-06T08:17:18;5.47;;;1.83;;
14076;SDS011;7114;51.100;13.998;2023-04-06T08:19:44;6.10;;;2.15;;
14076;SDS011;7114;51.100;13.998;2023-04-06T08:22:11;6.78;;;2.20;;
14076;SDS011;7114;51.100;13.998;2023-04-06T08:24:37;6.60;;;1.92;;
14076;SDS011;7114;51.100;13.998;2023-04-06T08:27:03;6.43;;;2.20;;
14076;SDS011;7114;51.100;13.998;2023-04-06T08:29:30;5.57;;;2.00;;
14076;SDS011;7114;51.100;13.998;2023-04-06T08:31:57;7.45;;;2.30;;
14076;SDS011;7114;51.100;13.998;2023-04-06T08:34:24;7.50;;;1.98;;
14076;SDS011;7114;51.100;13.998;2023-04-06T08:36:50;6.63;;;2.00;;
14076;SDS011;7114;51.100;13.998;2023-04-06T08:39:17;6.70;;;2.00;;
14076;SDS011;7114;51.100;13.998;2023-04-06T08:41:48;6.88;;;2.30;;
14076;SDS011;7114;51.100;13.998;2023-04-06T08:44:16;7.35;;;2.50;;
14076;SDS011;7114;51.100;13.998;2023-04-06T08:46:43;6.75;;;2.35;;
14076;SDS011;7114;51.100;13.998;2023-04-06T08:49:10;7.38;;;2.63;;
14076;SDS011;7114;51.100;13.998;2023-04-06T08:51:38;6.80;;;2.80;;
14076;SDS011;7114;51.100;13.998;2023-04-06T08:54:04;6.20;;;2.20;;
14076;SDS011;7114;51.100;13.998;2023-04-06T08:56:30;5.75;;;2.38;;
14076;SDS011;7114;51.100;13.998;2023-04-06T08:58:57;7.18;;;2.70;;
14076;SDS011;7114;51.100;13.998;2023-04-06T09:01:25;6.43;;;2.08;;
14076;SDS011;7114;51.100;13.998;2023-04-06T09:03:54;6.33;;;2.00;;
14076;SDS011;7114;51.100;13.998;2023-04-06T09:06:24;6.63;;;2.45;;
14076;SDS011;7114;51.100;13.998;2023-04-06T09:08:51;7.10;;;2.47;;
14076;SDS011;7114;51.100;13.998;2023-04-06T09:11:17;6.22;;;1.98;;
14076;SDS011;7114;51.100;13.998;2023-04-06T09:13:44;6.10;;;2.25;;
14076;SDS011;7114;51.100;13.998;2023-04-06T09:16:11;5.50;;;1.60;;
14076;SDS011;7114;51.100;13.998;2023-04-06T09:18:37;5.63;;;2.03;;
14076;SDS011;7114;51.100;13.998;2023-04-06T09:21:04;5.57;;;2.10;;
14076;SDS011;7114;51.100;13.998;2023-04-06T09:23:33;6.13;;;2.50;;
14076;SDS011;7114;51.100;13.998;2023-04-06T09:26:06;6.75;;;2.60;;
14076;SDS011;7114;51.100;13.998;2023-04-06T09:28:43;5.43;;;2.10;;
14076;SDS011;7114;51.100;13.998;2023-04-06T09:31:11;7.57;;;2.33;;
14076;SDS011;7114;51.100;13.998;2023-04-06T09:33:38;5.65;;;2.20;;
14076;SDS011;7114;51.100;13.998;2023-04-06T09:36:05;5.60;;;2.10;;
14076;SDS011;7114;51.100;13.998;2023-04-06T09:38:33;6.45;;;2.40;;
14076;SDS011;7114;51.100;13.998;2023-04-06T09:41:00;6.03;;;2.30;;
14076;SDS011;7114;51.100;13.998;2023-04-06T09:43:26;6.30;;;2.03;;
14076;SDS011;7114;51.100;13.998;2023-04-06T09:45:53;5.22;;;1.75;;
14076;SDS011;7114;51.100;13.998;2023-04-06T09:48:20;6.10;;;1.90;;
14076;SDS011;7114;51.100;13.998;2023-04-06T09:50:47;6.10;;;2.33;;
14076;SDS011;7114;51.100;13.998;2023-04-06T09:53:15;7.30;;;1.90;;
14076;SDS011;7114;51.100;13.998;2023-04-06T09:55:44;6.18;;;1.85;;
14076;SDS011;7114;51.100;13.998;2023-04-06T09:58:12;6.40;;;2.20;;
14076;SDS011;7114;51.100;13.998;2023-04-06T10:00:40;6.80;;;2.00;;
14076;SDS011;7114;51.100;13.998;2023-04-06T10:03:11;6.20;;;1.90;;
14076;SDS011;7114;51.100;13.998;2023-04-06T10:05:42;5.60;;;1.80;;
14076;SDS011;7114;51.100;13.998;2023-04-06T10:08:10;5.72;;;2.03;;
14076;SDS011;7114;51.100;13.998;2023-04-06T10:10:37;6.57;;;1.90;;
14076;SDS011;7114;51.100;13.998;2023-04-06T10:13:05;5.43;;;1.73;;
14076;SDS011;7114;51.100;13.998;2023-04-06T10:15:31;5.93;;;1.90;;
14076;SDS011;7114;51.100;13.998;2023-04-06T10:17:58;6.03;;;2.30;;
14076;SDS011;7114;51.100;13.998;2023-04-06T10:20:25;6.05;;;2.50;;
14076;SDS011;7114;51.100;13.998;2023-04-06T10:22:55;7.00;;;2.70;;
14076;SDS011;7114;51.100;13.998;2023-04-06T10:25:27;7.38;;;2.25;;
14076;SDS011;7114;51.100;13.998;2023-04-06T10:27:58;6.63;;;1.70;;
14076;SDS011;7114;51.100;13.998;2023-04-06T10:30:26;7.50;;;2.83;;
14076;SDS011;7114;51.100;13.998;2023-04-06T10:32:54;7.78;;;3.53;;
14076;SDS011;7114;51.100;13.998;2023-04-06T10:35:20;6.40;;;2.55;;
14076;SDS011;7114;51.100;13.998;2023-04-06T10:37:47;6.32;;;2.22;;
14076;SDS011;7114;51.100;13.998;2023-04-06T10:40:19;5.38;;;2.00;;
14076;SDS011;7114;51.100;13.998;2023-04-06T10:42:46;5.33;;;1.90;;
14076;SDS011;7114;51.100;13.998;2023-04-06T10:45:19;5.53;;;1.95;;
14076;SDS011;7114;51.100;13.998;2023-04-06T10:47:47;6.32;;;1.80;;
14076;SDS011;7114;51.100;13.998;2023-04-06T10:50:14;5.60;;;2.03;;
14076;SDS011;7114;51.100;13.998;2023-04-06T10:52:41;5.60;;;2.28;;
14076;SDS011;7114;51.100;13.998;2023-04-06T10:55:08;5.33;;;1.77;;
14076;SDS011;7114;51.100;13.998;2023-04-06T10:57:35;5.57;;;2.17;;
14076;SDS011;7114;51.100;13.998;2023-04-06T11:00:03;5.60;;;2.10;;
14076;SDS011;7114;51.100;13.998;2023-04-06T11:02:30;5.60;;;1.80;;
14076;SDS011;7114;51.100;13.998;2023-04-06T11:04:58;6.57;;;2.20;;
14076;SDS011;7114;51.100;13.998;2023-04-06T11:07:24;6.40;;;2.20;;
14076;SDS011;7114;51.100;13.998;2023-04-06T11:09:51;6.03;;;2.20;;
14076;SDS011;7114;51.100;13.998;2023-04-06T11:12:22;7.45;;;2.70;;
14076;SDS011;7114;51.100;13.998;2023-04-06T11:14:53;5.82;;;2.22;;
14076;SDS011;7114;51.100;13.998;2023-04-06T11:17:25;6.05;;;2.40;;
14076;SDS011;7114;51.100;13.998;2023-04-06T11:19:51;6.03;;;2.30;;
14076;SDS011;7114;51.100;13.998;2023-04-06T11:22:19;5.78;;;2.33;;
14076;SDS011;7114;51.100;13.998;2023-04-06T11:24:45;6.13;;;2.50;;
14076;SDS011;7114;51.100;13.998;2023-04-06T11:27:12;6.55;;;2.30;;
14076;SDS011;7114;51.100;13.998;2023-04-06T11:29:40;7.93;;;2.53;;
14076;SDS011;7114;51.100;13.998;2023-04-06T11:32:06;6.23;;;2.73;;
14076;SDS011;7114;51.100;13.998;2023-04-06T11:34:34;6.85;;;2.85;;
14076;SDS011;7114;51.100;13.998;2023-04-06T11:37:02;8.48;;;3.47;;
14076;SDS011;7114;51.100;13.998;2023-04-06T11:39:32;8.93;;;3.83;;
14076;SDS011;7114;51.100;13.998;2023-04-06T11:42:04;8.00;;;3.30;;
14076;SDS011;7114;51.100;13.998;2023-04-06T11:44:31;6.20;;;2.20;;
14076;SDS011;7114;51.100;13.998;2023-04-06T11:46:58;9.30;;;4.10;;
14076;SDS011;7114;51.100;13.998;2023-04-06T11:49:26;8.23;;;3.80;;
14076;SDS011;7114;51.100;13.998;2023-04-06T11:51:53;8.02;;;4.60;;
14076;SDS011;7114;51.100;13.998;2023-04-06T11:54:28;7.75;;;4.00;;
14076;SDS011;7114;51.100;13.998;2023-04-06T11:56:57;7.57;;;3.23;;
14076;SDS011;7114;51.100;13.998;2023-04-06T11:59:23;8.90;;;3.90;;
14076;SDS011;7114;51.100;13.998;2023-04-06T12:01:49;9.68;;;5.13;;
14076;SDS011;7114;51.100;13.998;2023-04-06T12:04:17;6.75;;;3.33;;
14076;SDS011;7114;51.100;13.998;2023-04-06T12:06:43;6.80;;;2.97;;
14076;SDS011;7114;51.100;13.998;2023-04-06T12:09:09;6.57;;;2.73;;
14076;SDS011;7114;51.100;13.998;2023-04-06T12:11:35;6.75;;;3.40;;
14076;SDS011;7114;51.100;13.998;2023-04-06T12:14:04;6.97;;;2.72;;
14076;SDS011;7114;51.100;13.998;2023-04-06T12:16:32;8.68;;;2.60;;
14076;SDS011;7114;51.100;13.998;2023-04-06T12:18:59;6.07;;;2.35;;
14076;SDS011;7114;51.100;13.998;2023-04-06T12:21:26;6.70;;;2.70;;
14076;SDS011;7114;51.100;13.998;2023-04-06T12:23:52;7.70;;;2.60;;
14076;SDS011;7114;51.100;13.998;2023-04-06T12:26:18;6.40;;;2.65;;
14076;SDS011;7114;51.100;13.998;2023-04-06T12:28:45;5.10;;;1.90;;
14076;SDS011;7114;51.100;13.998;2023-04-06T12:31:15;6.10;;;2.42;;
14076;SDS011;7114;51.100;13.998;2023-04-06T12:33:41;6.13;;;2.23;;
14076;SDS011;7114;51.100;13.998;2023-04-06T12:36:11;5.47;;;2.35;;
14076;SDS011;7114;51.100;13.998;2023-04-06T12:38:37;5.78;;;1.95;;
14076;SDS011;7114;51.100;13.998;2023-04-06T12:41:04;6.18;;;2.85;;
14076;SDS011;7114;51.100;13.998;2023-04-06T12:43:31;6.43;;;2.50;;
14076;SDS011;7114;51.100;13.998;2023-04-06T12:45:57;5.53;;;2.50;;
14076;SDS011;7114;51.100;13.998;2023-04-06T12:48:25;7.30;;;2.88;;
14076;SDS011;7114;51.100;13.998;2023-04-06T12:50:55;5.25;;;2.30;;
14076;SDS011;7114;51.100;13.998;2023-04-06T12:53:23;8.65;;;2.92;;
14076;SDS011;7114;51.100;13.998;2023-04-06T12:55:49;5.75;;;2.70;;
14076;SDS011;7114;51.100;13.998;2023-04-06T12:58:16;6.47;;;2.40;;
14076;SDS011;7114;51.100;13.998;2023-04-06T13:00:43;5.22;;;1.75;;
14076;SDS011;7114;51.100;13.998;2023-04-06T13:03:09;5.95;;;2.75;;
14076;SDS011;7114;51.100;13.998;2023-04-06T13:05:36;8.35;;;3.15;;
14076;SDS011;7114;51.100;13.998;2023-04-06T13:08:09;6.50;;;2.28;;
14076;SDS011;7114;51.100;13.998;2023-04-06T13:10:35;6.87;;;2.90;;
14076;SDS011;7114;51.100;13.998;2023-04-06T13:13:02;6.75;;;3.00;;
14076;SDS011;7114;51.100;13.998;2023-04-06T13:15:28;6.10;;;2.40;;
14076;SDS011;7114;51.100;13.998;2023-04-06T13:17:54;6.60;;;3.20;;
14076;SDS011;7114;51.100;13.998;2023-04-06T13:20:21;7.05;;;2.80;;
14076;SDS011;7114;51.100;13.998;2023-04-06T13:22:50;6.43;;;2.50;;
14076;SDS011;7114;51.100;13.998;2023-04-06T13:25:16;5.40;;;2.20;;
14076;SDS011;7114;51.100;13.998;2023-04-06T13:27:43;5.45;;;2.15;;
14076;SDS011;7114;51.100;13.998;2023-04-06T13:30:11;6.50;;;2.35;;
14076;SDS011;7114;51.100;13.998;2023-04-06T13:32:39;5.82;;;2.60;;
14076;SDS011;7114;51.100;13.998;2023-04-06T13:35:05;5.80;;;2.10;;
14076;SDS011;7114;51.100;13.998;2023-04-06T13:37:32;5.50;;;2.05;;
14076;SDS011;7114;51.100;13.998;2023-04-06T13:40:00;5.95;;;2.20;;
14076;SDS011;7114;51.100;13.998;2023-04-06T13:42:27;5.45;;;2.38;;
14076;SDS011;7114;51.100;13.998;2023-04-06T13:44:53;5.80;;;2.60;;
14076;SDS011;7114;51.100;13.998;2023-04-06T13:47:20;5.60;;;2.40;;
14076;SDS011;7114;51.100;13.998;2023-04-06T13:49:46;5.47;;;2.20;;
14076;SDS011;7114;51.100;13.998;2023-04-06T13:52:13;5.40;;;2.15;;
14076;SDS011;7114;51.100;13.998;2023-04-06T13:54:39;5.85;;;2.30;;
14076;SDS011;7114;51.100;13.998;2023-04-06T13:57:07;5.50;;;2.40;;
14076;SDS011;7114;51.100;13.998;2023-04-06T13:59:33;5.77;;;2.50;;
14076;SDS011;7114;51.100;13.998;2023-04-06T14:01:59;6.10;;;2.00;;
14076;SDS011;7114;51.100;13.998;2023-04-06T14:04:26;6.15;;;2.60;;
14076;SDS011;7114;51.100;13.998;2023-04-06T14:06:52;6.15;;;2.55;;
14076;SDS011;7114;51.100;13.998;2023-04-06T14:09:18;6.18;;;2.90;;
14076;SDS011;7114;51.100;13.998;2023-04-06T14:11:44;6.17;;;2.50;;
14076;SDS011;7114;51.100;13.998;2023-04-06T14:14:12;6.80;;;2.38;;
14076;SDS011;7114;51.100;13.998;2023-04-06T14:16:39;5.90;;;2.58;;
14076;SDS011;7114;51.100;13.998;2023-04-06T14:19:06;5.18;;;1.90;;
14076;SDS011;7114;51.100;13.998;2023-04-06T14:21:32;6.03;;;2.67;;
14076;SDS011;7114;51.100;13.998;2023-04-06T14:23:59;5.60;;;2.60;;
14076;SDS011;7114;51.100;13.998;2023-04-06T14:26:25;6.38;;;2.30;;
14076;SDS011;7114;51.100;13.998;2023-04-06T14:28:51;6.30;;;2.60;;
14076;SDS011;7114;51.100;13.998;2023-04-06T14:31:19;6.15;;;2.53;;
14076;SDS011;7114;51.100;13.998;2023-04-06T14:33:45;5.38;;;1.95;;
14076;SDS011;7114;51.100;13.998;2023-04-06T14:36:11;6.30;;;2.23;;
14076;SDS011;7114;51.100;13.998;2023-04-06T14:38:38;5.07;;;1.80;;
14076;SDS011;7114;51.100;13.998;2023-04-06T14:41:06;5.85;;;2.10;;